Pagina principale
METAR-TAF:

METAR-TAF

Aeroporti :

Ilam, Iran

latitudine: 33-35-09N, longitudine: 046-24-20E, altezza: 1334 m

Osservazione

Il bollettino è stato emesso 1 ora e 9 minuti fa, alle 17:00 UTC
Vento 8 kt da ovest
Temperature 27°C
Umidità 20%
Pressione 1016 hPa
Visibilità 10 km o più
nessuna nube inferiore a 1500 m e nessun cumulonembo

METAR: OICI 181700Z 28008KT CAVOK 27/02 Q1015 A3000

Ora: 22:39 (18:09 UTC)

Previsione

Il bollettino è stato emesso 39 minuti fa, alle 17:30 UTC
Previsione valida dal 18 alle 18 UTC al 19 alle 24 UTC
Vento 8 kt da ovest
Visibilità: 8000 m
Temporaneamente
dal 19 alle 09 UTC al 19 alle 15 UTC
Vento 8 kt da ovest/nord-ovest con raffiche fino a 18 kt

TAF: OICI 181730Z 1818/1924 28008KT 8000 NSC TEMPO 1909/1915 29008G18KT

Osservazioni e previsioni meteorologiche di più di 4000 aeroporti (messaggi METAR e TAF).

Le stazioni disponibili sono rappresentate dai dischi gialli e rossi sulla carta.

Puntare il mouse per vedere il nome della stazione.

Clicca sopra per visualizzare le osservazioni e previsioni meteorologiche.

Per cambiare la mappa : fare clic sui pulsanti verdi con una croce nera per ingrandire, il pulsante verde con un trattino per diminuire, o sulla freccia verde per le mappe adiacenti.


METAR-TAF: